Time;durP1;ratioP1;P1;durP2;ratioP2;P2;SDS_P1;SDS_P2;PMS_P1;PMS_P2;Temp;Humidity;BMP_temperature;BMP_pressure;BME280_temperature;BME280_humidity;BME280_pressure;Samples;Min_cycle;Max_cycle;Signal;HPM_P1;HPM_P2
2021/10/05 00:01:26;;;;;;;3.22;1.33;;;13.40;93.90;;;;;;4972496;28;20035;-73
2021/10/05 00:03:52;;;;;;;2.67;1.45;;;13.50;93.90;;;;;;4973257;28;20041;-73
2021/10/05 00:06:18;;;;;;;3.20;1.30;;;13.50;93.90;;;;;;4972465;28;20031;-74
2021/10/05 00:08:43;;;;;;;3.58;1.27;;;13.50;93.90;;;;;;4972810;28;20062;-74
2021/10/05 00:11:09;;;;;;;3.25;1.27;;;13.50;93.90;;;;;;4972274;28;20074;-74
2021/10/05 00:13:36;;;;;;;4.30;1.65;;;13.50;94.00;;;;;;4971490;28;20458;-74
2021/10/05 00:16:02;;;;;;;2.20;1.23;;;13.40;93.90;;;;;;4973213;28;20022;-73
2021/10/05 00:18:27;;;;;;;1.98;1.42;;;13.50;94.00;;;;;;4972287;28;20051;-74
2021/10/05 00:20:53;;;;;;;4.35;1.58;;;13.50;94.00;;;;;;4972698;28;20027;-73
2021/10/05 00:23:19;;;;;;;2.70;1.25;;;13.50;93.90;;;;;;4972494;28;20038;-73
2021/10/05 00:25:44;;;;;;;2.20;1.35;;;13.50;94.10;;;;;;4972587;28;20472;-72
2021/10/05 00:28:10;;;;;;;1.75;1.20;;;13.40;94.20;;;;;;4971374;28;20042;-73
2021/10/05 00:30:36;;;;;;;1.38;1.13;;;13.40;94.20;;;;;;4972949;28;20043;-72
2021/10/05 00:33:02;;;;;;;2.88;1.40;;;13.40;94.20;;;;;;4971407;28;20027;-73
2021/10/05 00:35:28;;;;;;;3.75;1.35;;;13.30;94.30;;;;;;4972259;28;20049;-72
2021/10/05 00:37:54;;;;;;;4.65;1.67;;;13.30;94.30;;;;;;4972579;28;20114;-72
2021/10/05 00:40:19;;;;;;;1.83;1.33;;;13.30;94.30;;;;;;4972849;28;20030;-72
2021/10/05 00:42:46;;;;;;;2.55;1.00;;;13.30;94.40;;;;;;4976756;28;20023;-73
2021/10/05 00:45:11;;;;;;;2.47;1.40;;;13.30;94.50;;;;;;4975463;28;20030;-73
2021/10/05 00:47:37;;;;;;;4.25;1.48;;;13.30;94.50;;;;;;4976267;28;20049;-73
2021/10/05 00:50:03;;;;;;;3.95;1.17;;;13.30;94.50;;;;;;4976198;28;20081;-72
2021/10/05 00:52:28;;;;;;;2.42;1.23;;;13.30;94.40;;;;;;4976043;28;20054;-73
2021/10/05 00:54:54;;;;;;;3.17;1.33;;;13.30;94.40;;;;;;4976713;28;20354;-72
2021/10/05 00:57:20;;;;;;;4.60;1.17;;;13.30;94.40;;;;;;4975995;28;20173;-73
2021/10/05 00:59:46;;;;;;;3.30;1.42;;;13.30;94.40;;;;;;4975749;28;20117;-74
2021/10/05 01:02:13;;;;;;;2.65;1.45;;;13.30;94.40;;;;;;4975990;28;20086;-72
2021/10/05 01:04:43;;;;;;;2.10;1.30;;;13.40;94.40;;;;;;4975791;28;20034;-73
2021/10/05 01:07:12;;;;;;;2.85;1.25;;;13.40;94.40;;;;;;4975981;28;20389;-73
2021/10/05 01:09:38;;;;;;;3.55;1.40;;;13.40;94.40;;;;;;4976019;28;20346;-72
2021/10/05 01:12:05;;;;;;;5.38;1.50;;;13.30;94.70;;;;;;4975700;28;20058;-72
2021/10/05 01:14:30;;;;;;;2.17;1.40;;;13.40;94.50;;;;;;4975512;28;20031;-73
2021/10/05 01:16:58;;;;;;;2.22;1.10;;;13.40;94.60;;;;;;4975762;28;20031;-74
2021/10/05 01:19:23;;;;;;;2.17;1.00;;;13.40;94.50;;;;;;4974417;28;20105;-74
2021/10/05 01:21:49;;;;;;;3.47;0.98;;;13.40;94.60;;;;;;4975700;28;20023;-72
2021/10/05 01:24:17;;;;;;;2.53;1.75;;;13.40;94.40;;;;;;4975548;28;20039;-74
2021/10/05 01:26:43;;;;;;;2.83;1.33;;;13.40;94.50;;;;;;4975355;28;20114;-76
2021/10/05 01:29:19;;;;;;;2.33;1.40;;;13.40;94.50;;;;;;4974313;28;20438;-72
2021/10/05 01:31:47;;;;;;;2.10;1.50;;;13.40;94.50;;;;;;4975264;28;20405;-72
2021/10/05 01:34:13;;;;;;;1.67;1.17;;;13.40;94.40;;;;;;4975375;28;20026;-74
2021/10/05 01:36:39;;;;;;;3.00;1.48;;;13.40;94.40;;;;;;4989995;28;20022;-73
2021/10/05 01:39:07;;;;;;;1.25;1.08;;;13.40;94.40;;;;;;4994689;28;20034;-73
2021/10/05 01:41:34;;;;;;;1.73;1.17;;;13.40;94.50;;;;;;4994334;28;20053;-72
2021/10/05 01:44:00;;;;;;;2.40;1.40;;;13.40;94.50;;;;;;4994434;28;20104;-72
2021/10/05 01:46:25;;;;;;;2.45;1.55;;;13.40;94.50;;;;;;4994404;28;20034;-72
2021/10/05 01:48:51;;;;;;;1.00;0.90;;;13.50;94.40;;;;;;4994829;28;20036;-73
2021/10/05 01:51:17;;;;;;;2.47;1.30;;;13.50;94.60;;;;;;4993849;28;20031;-73
2021/10/05 01:53:42;;;;;;;1.85;1.05;;;13.40;94.70;;;;;;4994154;28;20058;-73
2021/10/05 01:56:09;;;;;;;2.72;1.45;;;13.40;94.90;;;;;;4994309;28;20034;-72
2021/10/05 01:58:34;;;;;;;4.95;2.78;;;13.40;94.60;;;;;;4994037;28;20042;-73
2021/10/05 02:01:01;;;;;;;5.57;1.58;;;13.40;94.70;;;;;;4994678;28;20125;-72
2021/10/05 02:03:27;;;;;;;1.20;1.10;;;13.40;94.60;;;;;;4994097;28;20062;-73
2021/10/05 02:05:53;;;;;;;2.85;1.55;;;13.40;94.90;;;;;;4993005;28;20031;-72
2021/10/05 02:08:18;;;;;;;3.58;1.50;;;13.40;94.80;;;;;;4994248;28;20034;-73
2021/10/05 02:10:44;;;;;;;3.47;1.65;;;13.30;94.80;;;;;;4993660;28;20050;-73
2021/10/05 02:13:11;;;;;;;1.95;1.20;;;13.30;94.60;;;;;;4994043;28;20019;-73
2021/10/05 02:15:37;;;;;;;2.38;1.50;;;13.30;94.60;;;;;;4992914;28;20030;-73
2021/10/05 02:18:04;;;;;;;4.85;1.30;;;13.30;94.80;;;;;;4992883;28;20030;-73
2021/10/05 02:20:30;;;;;;;1.90;1.17;;;13.20;94.90;;;;;;4992881;28;20027;-74
2021/10/05 02:22:55;;;;;;;3.63;1.67;;;13.20;95.00;;;;;;4993770;28;20037;-73
2021/10/05 02:25:21;;;;;;;3.40;1.58;;;13.20;94.90;;;;;;4993842;28;20029;-73
2021/10/05 02:27:47;;;;;;;3.70;1.48;;;13.20;95.10;;;;;;4994261;28;20354;-72
2021/10/05 02:30:13;;;;;;;3.30;1.48;;;13.20;95.00;;;;;;4992540;28;20022;-73
2021/10/05 02:32:41;;;;;;;3.45;1.70;;;13.20;95.00;;;;;;4993695;28;20030;-73
2021/10/05 02:35:07;;;;;;;6.00;1.70;;;13.20;95.20;;;;;;4993693;28;20038;-73
2021/10/05 02:37:33;;;;;;;2.47;1.33;;;13.20;95.30;;;;;;4993564;28;20048;-72
2021/10/05 02:40:00;;;;;;;2.90;1.55;;;13.20;95.20;;;;;;4992561;28;20457;-72
2021/10/05 02:42:26;;;;;;;4.40;1.27;;;13.20;95.30;;;;;;4992348;28;20037;-72
2021/10/05 02:44:53;;;;;;;2.47;1.30;;;13.20;95.20;;;;;;4992956;28;20034;-72
2021/10/05 02:47:20;;;;;;;2.03;1.40;;;13.20;95.40;;;;;;4993212;28;20126;-73
2021/10/05 02:49:46;;;;;;;1.80;1.45;;;13.10;95.30;;;;;;4992944;28;20162;-73
2021/10/05 02:52:14;;;;;;;1.73;1.33;;;13.20;95.30;;;;;;4993141;28;20596;-73
2021/10/05 02:54:41;;;;;;;2.10;1.65;;;13.20;95.30;;;;;;4993570;28;20015;-73
2021/10/05 02:57:06;;;;;;;2.45;1.50;;;13.20;95.30;;;;;;4993287;28;20031;-73
2021/10/05 02:59:32;;;;;;;3.90;1.77;;;13.30;95.40;;;;;;4992824;28;20365;-73
2021/10/05 03:01:58;;;;;;;1.55;1.17;;;13.30;95.50;;;;;;4992854;28;20403;-73
2021/10/05 03:04:24;;;;;;;2.30;1.60;;;13.30;95.50;;;;;;4992189;28;20022;-74
2021/10/05 03:06:49;;;;;;;2.47;1.58;;;13.20;95.50;;;;;;4993336;28;20065;-74
2021/10/05 03:09:15;;;;;;;2.28;1.50;;;13.30;95.40;;;;;;4992922;28;20534;-74
2021/10/05 03:11:40;;;;;;;2.55;1.25;;;13.30;95.50;;;;;;4992768;28;20082;-73
2021/10/05 03:14:06;;;;;;;2.33;1.70;;;13.30;95.50;;;;;;4992770;28;20030;-73
2021/10/05 03:16:32;;;;;;;1.77;1.40;;;13.30;95.30;;;;;;4992607;28;20045;-74
2021/10/05 03:18:58;;;;;;;1.83;1.25;;;13.30;95.40;;;;;;4992854;28;20372;-72
2021/10/05 03:21:23;;;;;;;2.40;1.40;;;13.40;95.50;;;;;;4992643;28;20034;-74
2021/10/05 03:23:49;;;;;;;2.80;1.60;;;13.30;95.70;;;;;;4992788;28;20110;-72
2021/10/05 03:26:15;;;;;;;10.13;1.75;;;13.30;95.50;;;;;;4992504;28;20030;-72
2021/10/05 03:28:41;;;;;;;2.90;1.23;;;13.30;95.40;;;;;;4992521;28;20061;-75
2021/10/05 03:31:07;;;;;;;1.92;1.23;;;13.30;95.40;;;;;;4992828;28;20054;-75
2021/10/05 03:33:33;;;;;;;2.33;1.48;;;13.30;95.40;;;;;;4992674;28;20034;-75
2021/10/05 03:35:58;;;;;;;4.63;1.50;;;13.30;95.60;;;;;;4992524;28;20029;-73
2021/10/05 03:38:24;;;;;;;1.70;1.60;;;13.30;95.60;;;;;;4992585;28;20093;-73
2021/10/05 03:40:51;;;;;;;1.58;1.20;;;13.30;95.70;;;;;;4991106;28;20031;-73
2021/10/05 03:43:16;;;;;;;1.80;1.38;;;13.30;95.80;;;;;;4992335;28;20022;-75
2021/10/05 03:45:42;;;;;;;2.53;1.45;;;13.30;95.60;;;;;;4992667;28;20088;-74
2021/10/05 03:48:08;;;;;;;2.25;1.13;;;13.30;95.70;;;;;;4991995;28;20101;-74
2021/10/05 03:50:33;;;;;;;2.63;1.20;;;13.30;95.60;;;;;;4991014;28;20080;-74
2021/10/05 03:52:59;;;;;;;1.85;1.50;;;13.30;95.70;;;;;;4992039;28;20092;-74
2021/10/05 03:55:25;;;;;;;3.13;1.35;;;13.30;95.80;;;;;;4992163;28;20029;-74
2021/10/05 03:57:50;;;;;;;6.13;1.40;;;13.30;95.90;;;;;;4992448;28;20018;-74
2021/10/05 04:00:16;;;;;;;1.65;1.10;;;13.30;95.70;;;;;;4992155;28;20564;-73
2021/10/05 04:02:42;;;;;;;4.22;1.23;;;13.30;95.70;;;;;;4990952;28;20038;-73
2021/10/05 04:05:08;;;;;;;1.98;1.00;;;13.30;95.90;;;;;;4992185;28;20034;-73
2021/10/05 04:07:33;;;;;;;4.57;1.40;;;13.20;96.10;;;;;;4991974;28;20034;-73
2021/10/05 04:09:59;;;;;;;2.00;1.40;;;13.30;95.90;;;;;;4992441;28;20105;-73
2021/10/05 04:12:25;;;;;;;2.60;1.40;;;13.30;96.00;;;;;;4992005;28;20050;-75
2021/10/05 04:14:50;;;;;;;3.78;1.17;;;13.30;96.00;;;;;;4992531;28;20464;-74
2021/10/05 04:17:17;;;;;;;1.98;1.38;;;13.20;96.10;;;;;;4995262;28;20088;-73
2021/10/05 04:19:43;;;;;;;3.30;1.15;;;13.30;96.10;;;;;;4995983;28;20069;-73
2021/10/05 04:22:09;;;;;;;1.25;1.10;;;13.20;96.10;;;;;;4996248;28;20026;-73
2021/10/05 04:24:34;;;;;;;1.95;1.58;;;13.30;96.10;;;;;;4996492;28;20071;-74
2021/10/05 04:27:00;;;;;;;3.05;1.30;;;13.30;96.00;;;;;;4995848;28;20101;-74
2021/10/05 04:29:26;;;;;;;2.42;1.50;;;13.30;96.00;;;;;;4995878;28;20061;-74
2021/10/05 04:31:52;;;;;;;1.52;1.30;;;13.30;96.00;;;;;;4995863;28;20105;-74
2021/10/05 04:34:17;;;;;;;1.55;1.10;;;13.40;96.00;;;;;;4994580;28;20373;-74
2021/10/05 04:36:43;;;;;;;2.25;1.42;;;13.40;96.10;;;;;;4996284;28;20026;-74
2021/10/05 04:39:08;;;;;;;3.15;1.08;;;13.40;96.00;;;;;;4995389;28;20050;-74
2021/10/05 04:41:34;;;;;;;4.53;1.30;;;13.50;95.90;;;;;;4995701;28;20031;-73
2021/10/05 04:43:59;;;;;;;5.40;1.88;;;13.50;95.90;;;;;;4995292;28;20041;-73
2021/10/05 04:46:25;;;;;;;4.07;1.67;;;13.60;96.20;;;;;;4995615;28;20058;-73
2021/10/05 04:48:50;;;;;;;1.90;1.48;;;13.50;95.90;;;;;;4995914;28;20037;-73
2021/10/05 04:51:16;;;;;;;3.72;1.42;;;13.50;95.90;;;;;;4995380;28;20114;-73
2021/10/05 04:53:42;;;;;;;1.73;1.10;;;13.50;96.00;;;;;;4994093;28;20038;-73
2021/10/05 04:56:07;;;;;;;2.63;1.40;;;13.60;95.90;;;;;;4995180;28;20043;-74
2021/10/05 04:58:33;;;;;;;3.03;1.60;;;13.60;95.90;;;;;;4993686;28;20130;-73
2021/10/05 05:00:58;;;;;;;2.90;1.83;;;13.60;96.00;;;;;;4995371;28;20368;-74
2021/10/05 05:03:24;;;;;;;8.27;1.80;;;13.60;96.00;;;;;;4995261;28;20461;-74
2021/10/05 05:05:50;;;;;;;3.92;1.60;;;13.60;96.10;;;;;;4995039;28;20204;-75
2021/10/05 05:08:16;;;;;;;2.60;1.50;;;13.50;96.10;;;;;;4993820;28;20031;-72
2021/10/05 05:10:41;;;;;;;2.50;1.20;;;13.50;96.20;;;;;;4994095;28;20209;-73
2021/10/05 05:13:07;;;;;;;4.15;1.40;;;13.50;96.20;;;;;;4994781;28;20117;-73
2021/10/05 05:15:33;;;;;;;1.85;1.42;;;13.40;96.30;;;;;;4994285;28;20033;-75
2021/10/05 05:17:58;;;;;;;2.05;1.33;;;13.50;96.20;;;;;;4993643;28;20084;-73
2021/10/05 05:20:24;;;;;;;2.10;1.30;;;13.50;96.30;;;;;;4994833;28;20061;-73
2021/10/05 05:22:50;;;;;;;4.18;1.10;;;13.50;96.30;;;;;;4993652;28;20041;-73
2021/10/05 05:25:16;;;;;;;3.75;1.30;;;13.50;96.20;;;;;;4994755;28;20030;-74
2021/10/05 05:27:42;;;;;;;3.67;1.40;;;13.50;96.30;;;;;;4983075;28;20025;-73
2021/10/05 05:30:08;;;;;;;2.47;1.15;;;13.50;96.20;;;;;;4975179;28;20360;-74
2021/10/05 05:32:34;;;;;;;2.40;1.13;;;13.50;96.10;;;;;;4974220;28;20042;-75
2021/10/05 05:35:00;;;;;;;1.08;0.90;;;13.60;96.10;;;;;;4975302;28;20077;-75
2021/10/05 05:37:25;;;;;;;2.97;1.30;;;13.50;95.80;;;;;;4975282;28;20063;-73
2021/10/05 05:39:51;;;;;;;1.70;1.20;;;13.50;96.10;;;;;;4974954;28;20031;-71
2021/10/05 05:42:17;;;;;;;1.38;1.27;;;13.50;96.10;;;;;;4974759;28;20334;-72
2021/10/05 05:44:42;;;;;;;2.22;1.15;;;13.40;96.20;;;;;;4974937;28;20109;-71
2021/10/05 05:47:08;;;;;;;2.25;1.20;;;13.40;96.10;;;;;;4974777;28;20038;-72
2021/10/05 05:49:34;;;;;;;2.05;1.30;;;13.50;96.10;;;;;;4974475;28;20058;-72
2021/10/05 05:51:59;;;;;;;1.50;1.00;;;13.50;96.10;;;;;;4974893;28;20027;-71
2021/10/05 05:54:25;;;;;;;2.20;1.27;;;13.40;96.00;;;;;;4974350;28;20377;-71
2021/10/05 05:56:51;;;;;;;1.60;0.90;;;13.50;96.10;;;;;;4973291;28;20031;-71
2021/10/05 05:59:17;;;;;;;2.88;1.00;;;13.50;96.00;;;;;;4974533;28;20039;-72
2021/10/05 06:01:42;;;;;;;2.75;1.10;;;13.50;95.90;;;;;;4974313;28;20038;-71
2021/10/05 06:04:08;;;;;;;1.85;0.85;;;13.50;95.90;;;;;;4974102;28;20066;-71
2021/10/05 06:06:34;;;;;;;4.32;1.08;;;13.40;95.80;;;;;;4974561;28;20030;-71
2021/10/05 06:09:00;;;;;;;3.45;1.10;;;13.50;96.00;;;;;;4973942;28;20082;-71
2021/10/05 06:11:36;;;;;;;2.03;1.30;;;13.50;95.80;;;;;;4973774;28;20050;-71
2021/10/05 06:14:02;;;;;;;1.55;0.95;;;13.50;95.70;;;;;;4973958;28;20045;-71
2021/10/05 06:16:28;;;;;;;2.85;1.08;;;13.50;95.80;;;;;;4973148;28;20113;-71
2021/10/05 06:18:53;;;;;;;0.90;0.80;;;13.50;95.80;;;;;;4974456;28;20450;-71
2021/10/05 06:21:19;;;;;;;2.35;1.60;;;13.60;95.80;;;;;;4973716;28;20110;-71
2021/10/05 06:23:45;;;;;;;7.25;3.70;;;13.60;95.70;;;;;;4973789;28;20027;-71
2021/10/05 06:26:11;;;;;;;9.63;5.97;;;13.60;95.70;;;;;;4972197;28;20030;-73
2021/10/05 06:28:36;;;;;;;4.20;2.58;;;13.70;95.70;;;;;;4973593;28;20031;-70
2021/10/05 06:31:03;;;;;;;10.82;4.18;;;13.70;95.70;;;;;;4974142;28;20118;-72
2021/10/05 06:33:30;;;;;;;6.22;2.95;;;13.70;95.60;;;;;;4973731;28;20046;-71
2021/10/05 06:35:56;;;;;;;3.73;1.30;;;13.70;95.40;;;;;;4973426;28;20086;-71
2021/10/05 06:38:22;;;;;;;3.10;0.85;;;13.70;95.40;;;;;;4973148;28;20273;-70
2021/10/05 06:40:47;;;;;;;3.40;1.27;;;13.70;95.50;;;;;;4973442;28;20038;-71
2021/10/05 06:43:13;;;;;;;3.47;1.38;;;13.70;95.60;;;;;;4973273;28;20102;-70
2021/10/05 06:45:39;;;;;;;1.95;1.10;;;13.70;95.70;;;;;;4974156;28;20019;-71
2021/10/05 06:48:06;;;;;;;2.53;1.17;;;13.70;95.70;;;;;;4973256;28;20027;-70
2021/10/05 06:50:34;;;;;;;1.88;1.13;;;13.80;95.80;;;;;;4972200;28;20161;-70
2021/10/05 06:53:00;;;;;;;;;;;13.70;95.60;;;;;;4973589;28;20038;-70
2021/10/05 06:55:25;;;;;;;2.10;1.00;;;13.80;95.50;;;;;;4973177;28;20343;-70
2021/10/05 06:57:51;;;;;;;3.15;1.25;;;13.80;95.50;;;;;;4973919;28;20026;-69
2021/10/05 07:00:19;;;;;;;3.20;1.33;;;13.80;95.60;;;;;;4972889;28;20038;-70
2021/10/05 07:02:47;;;;;;;5.18;1.33;;;13.90;95.60;;;;;;4973054;28;20089;-70
2021/10/05 07:05:14;;;;;;;2.97;1.37;;;13.90;95.60;;;;;;4973194;28;20038;-70
2021/10/05 07:07:46;;;;;;;17.88;5.88;;;13.90;95.60;;;;;;4972023;28;20275;-70
2021/10/05 07:10:15;;;;;;;17.00;8.45;;;13.90;95.50;;;;;;4972720;28;20035;-70
2021/10/05 07:12:41;;;;;;;4.80;1.40;;;13.90;95.60;;;;;;4973306;28;20030;-70
2021/10/05 07:15:08;;;;;;;3.00;1.52;;;13.90;95.70;;;;;;4972844;28;20039;-69
2021/10/05 07:17:34;;;;;;;3.58;1.20;;;14.00;95.80;;;;;;4972984;28;20050;-69
2021/10/05 07:20:00;;;;;;;4.90;0.95;;;14.00;95.80;;;;;;4972770;28;20046;-69
2021/10/05 07:22:26;;;;;;;4.03;1.42;;;14.00;95.70;;;;;;4972899;28;20102;-69
2021/10/05 07:24:52;;;;;;;5.50;1.23;;;14.00;95.70;;;;;;4973117;28;20027;-69
2021/10/05 07:27:18;;;;;;;2.65;1.05;;;14.20;95.70;;;;;;4972894;28;20384;-69
2021/10/05 07:29:44;;;;;;;2.78;0.98;;;14.20;95.80;;;;;;4971701;28;20437;-69
2021/10/05 07:32:10;;;;;;;3.35;1.38;;;14.20;95.80;;;;;;4971584;28;20035;-70
2021/10/05 07:34:36;;;;;;;1.15;0.80;;;14.20;95.90;;;;;;4972432;28;20417;-69
2021/10/05 07:37:01;;;;;;;5.20;1.00;;;14.30;95.80;;;;;;4973093;28;20030;-69
2021/10/05 07:39:27;;;;;;;4.93;0.80;;;14.30;95.90;;;;;;4972492;28;20490;-70
2021/10/05 07:41:53;;;;;;;9.65;4.55;;;14.30;96.00;;;;;;4972426;28;20362;-70
2021/10/05 07:44:18;;;;;;;10.35;5.30;;;14.30;96.10;;;;;;4972237;28;20039;-70
2021/10/05 07:46:45;;;;;;;3.33;1.77;;;14.30;96.20;;;;;;4972248;28;20105;-71
2021/10/05 07:49:11;;;;;;;3.80;1.10;;;14.30;96.30;;;;;;4970797;28;20030;-71
2021/10/05 07:51:36;;;;;;;4.53;1.25;;;14.30;96.20;;;;;;4972582;28;20031;-71
2021/10/05 07:54:02;;;;;;;1.60;1.10;;;14.30;96.30;;;;;;4972118;28;20039;-71
2021/10/05 07:56:28;;;;;;;0.95;0.90;;;14.40;96.20;;;;;;4972394;28;20030;-71
2021/10/05 07:58:54;;;;;;;3.35;1.23;;;14.40;96.20;;;;;;4971003;28;20130;-71
2021/10/05 08:01:19;;;;;;;3.08;1.27;;;14.40;96.30;;;;;;4972449;28;20015;-71
2021/10/05 08:03:45;;;;;;;1.92;1.27;;;14.40;96.40;;;;;;4972372;28;20078;-72
2021/10/05 08:06:10;;;;;;;3.17;1.20;;;14.40;96.60;;;;;;4971790;28;20035;-72
2021/10/05 08:08:36;;;;;;;3.60;1.10;;;14.40;96.70;;;;;;4971964;28;20042;-72
2021/10/05 08:11:02;;;;;;;2.42;1.15;;;14.40;96.70;;;;;;4971775;28;20055;-72
2021/10/05 08:13:28;;;;;;;2.30;1.35;;;14.40;96.80;;;;;;4970801;28;20055;-71
2021/10/05 08:15:54;;;;;;;1.13;1.00;;;14.40;96.90;;;;;;4972489;28;20454;-71
2021/10/05 08:18:20;;;;;;;2.60;1.13;;;14.50;97.10;;;;;;4970591;28;20034;-72
2021/10/05 08:20:47;;;;;;;1.45;1.08;;;14.40;96.80;;;;;;4971807;28;20027;-72
2021/10/05 08:23:13;;;;;;;1.77;0.93;;;14.40;96.90;;;;;;4971461;28;20155;-71
2021/10/05 08:25:39;;;;;;;2.25;1.25;;;14.40;96.90;;;;;;4972018;28;20098;-72
2021/10/05 08:28:05;;;;;;;2.28;1.60;;;14.50;96.90;;;;;;4972297;28;20449;-71
2021/10/05 08:30:31;;;;;;;1.80;1.40;;;14.50;97.00;;;;;;4970856;28;20559;-70
2021/10/05 08:32:57;;;;;;;1.92;1.20;;;14.50;96.80;;;;;;4971900;28;20027;-73
2021/10/05 08:35:24;;;;;;;2.67;1.52;;;14.50;96.90;;;;;;4972005;28;20035;-72
2021/10/05 08:37:49;;;;;;;1.80;1.58;;;14.40;97.00;;;;;;4971788;28;20109;-72
2021/10/05 08:40:16;;;;;;;2.53;1.50;;;14.50;96.80;;;;;;4971438;28;20441;-71
2021/10/05 08:42:41;;;;;;;3.92;1.75;;;14.50;96.70;;;;;;4972112;28;20360;-73
2021/10/05 08:45:08;;;;;;;2.53;1.65;;;14.50;97.10;;;;;;4971756;28;20489;-73
2021/10/05 08:47:34;;;;;;;6.68;1.35;;;14.50;97.00;;;;;;4971961;28;20130;-71
2021/10/05 08:50:01;;;;;;;2.15;1.23;;;14.40;96.80;;;;;;4971731;28;20127;-73
2021/10/05 08:52:27;;;;;;;3.70;1.30;;;14.40;96.90;;;;;;4970459;28;20034;-72
2021/10/05 08:54:53;;;;;;;1.98;1.50;;;14.40;96.90;;;;;;4972134;28;20502;-72
2021/10/05 08:57:19;;;;;;;2.10;1.40;;;14.40;96.90;;;;;;4971791;28;20465;-72
2021/10/05 08:59:44;;;;;;;6.80;2.00;;;14.40;96.70;;;;;;4971490;28;20182;-73
2021/10/05 09:02:16;;;;;;;6.07;1.73;;;14.40;96.90;;;;;;4974571;28;20107;-71
2021/10/05 09:04:43;;;;;;;2.00;1.25;;;14.40;97.00;;;;;;4975485;28;20415;-71
2021/10/05 09:07:23;;;;;;;4.28;1.70;;;14.40;96.90;;;;;;4975183;28;20445;-73
2021/10/05 09:09:54;;;;;;;4.40;1.60;;;14.40;97.20;;;;;;4975650;28;20058;-72
2021/10/05 09:12:29;;;;;;;2.78;1.35;;;14.30;97.30;;;;;;4974003;28;20061;-72
2021/10/05 09:14:56;;;;;;;3.42;1.75;;;14.40;97.40;;;;;;4975112;28;20056;-72
2021/10/05 09:17:22;;;;;;;3.28;1.40;;;14.30;97.90;;;;;;4974996;28;20097;-72
2021/10/05 09:19:49;;;;;;;2.25;1.50;;;14.40;97.80;;;;;;4975038;28;20429;-72
2021/10/05 09:22:17;;;;;;;2.67;1.50;;;14.40;97.90;;;;;;4974173;28;20046;-72
2021/10/05 09:24:46;;;;;;;3.65;1.65;;;14.40;97.90;;;;;;4975495;28;20054;-72
2021/10/05 09:27:13;;;;;;;2.63;1.38;;;14.50;97.90;;;;;;4974883;28;20449;-72
2021/10/05 09:29:39;;;;;;;3.47;1.80;;;14.50;97.90;;;;;;4974866;28;20034;-72
2021/10/05 09:32:23;;;;;;;5.50;2.10;;;14.50;97.90;;;;;;4974704;28;20102;-72
2021/10/05 09:34:57;;;;;;;6.00;2.20;;;14.50;98.00;;;;;;4974710;28;20035;-72
2021/10/05 09:37:27;;;;;;;3.92;2.00;;;14.60;98.20;;;;;;4974639;28;20019;-72
2021/10/05 09:40:03;;;;;;;4.88;2.10;;;14.60;98.20;;;;;;4974899;28;20023;-71
2021/10/05 09:42:31;;;;;;;3.15;1.67;;;14.60;98.00;;;;;;4974646;28;20126;-72
2021/10/05 09:44:57;;;;;;;;;;;14.60;98.10;;;;;;4975031;28;20485;-72
2021/10/05 09:47:46;;;;;;;2.45;1.88;;;14.70;98.10;;;;;;4974492;28;19930;-72
2021/10/05 09:50:18;;;;;;;2.92;1.52;;;14.70;98.00;;;;;;4974448;28;20034;-72
2021/10/05 09:52:50;;;;;;;2.67;1.70;;;14.70;98.10;;;;;;4974056;28;20039;-72
2021/10/05 09:55:18;;;;;;;4.03;1.73;;;14.70;97.90;;;;;;4974594;28;20599;-72
2021/10/05 09:57:44;;;;;;;5.43;2.10;;;14.60;98.00;;;;;;4974813;28;20033;-72
2021/10/05 10:00:12;;;;;;;3.72;1.83;;;14.60;98.10;;;;;;4973082;28;20381;-73
2021/10/05 10:02:39;;;;;;;6.13;1.98;;;14.70;98.20;;;;;;4974229;28;20106;-71
2021/10/05 10:05:07;;;;;;;4.60;2.45;;;14.70;98.40;;;;;;4974248;28;20081;-70
2021/10/05 10:07:39;;;;;;;6.07;2.05;;;14.80;98.60;;;;;;4974255;28;20037;-71
2021/10/05 10:10:10;;;;;;;4.15;1.98;;;14.70;98.70;;;;;;4974468;28;20042;-70
2021/10/05 10:12:37;;;;;;;4.63;2.13;;;14.80;98.40;;;;;;4973558;28;20062;-70
2021/10/05 10:15:03;;;;;;;5.07;1.92;;;14.80;98.30;;;;;;4972947;28;20485;-69
2021/10/05 10:17:29;;;;;;;2.75;1.65;;;14.80;98.40;;;;;;4974068;28;20038;-69
2021/10/05 10:19:54;;;;;;;3.33;1.80;;;14.90;98.70;;;;;;4973933;28;20038;-69
2021/10/05 10:22:20;;;;;;;3.70;1.88;;;15.20;98.60;;;;;;4973991;28;20034;-70
2021/10/05 10:24:57;;;;;;;2.47;1.63;;;15.30;98.40;;;;;;4974062;28;20078;-70
2021/10/05 10:27:22;;;;;;;3.22;1.35;;;15.40;97.90;;;;;;4973788;28;20477;-70
2021/10/05 10:29:49;;;;;;;3.50;1.83;;;15.50;97.80;;;;;;4973920;28;20485;-69
2021/10/05 10:32:20;;;;;;;4.20;1.92;;;15.50;97.70;;;;;;4973816;28;20097;-70
2021/10/05 10:34:59;;;;;;;4.13;1.98;;;15.50;98.10;;;;;;4973593;28;20480;-72
2021/10/05 10:37:25;;;;;;;5.25;2.05;;;15.50;98.30;;;;;;4972607;28;20335;-71
2021/10/05 10:39:53;;;;;;;3.83;2.13;;;15.60;98.50;;;;;;4973827;28;20085;-71
2021/10/05 10:42:30;;;;;;;3.20;1.73;;;15.50;98.20;;;;;;4973495;28;20536;-72
2021/10/05 10:44:56;;;;;;;6.18;2.60;;;15.60;98.20;;;;;;4973458;28;20118;-72
2021/10/05 10:47:24;;;;;;;2.42;1.60;;;15.60;98.50;;;;;;4973633;28;20038;-70
2021/10/05 10:50:09;;;;;;;6.38;1.75;;;15.60;98.20;;;;;;4973335;28;20066;-70
2021/10/05 10:52:37;;;;;;;3.58;1.42;;;15.50;97.60;;;;;;4979270;28;20503;-73
2021/10/05 10:55:06;;;;;;;2.78;1.50;;;15.50;97.60;;;;;;4992844;28;20400;-71
2021/10/05 10:57:41;;;;;;;5.75;1.67;;;15.30;97.70;;;;;;4991507;28;20497;-71
2021/10/05 11:00:27;;;;;;;3.65;1.27;;;15.30;97.90;;;;;;4992335;28;20528;-71
2021/10/05 11:02:55;;;;;;;4.20;1.60;;;15.30;98.00;;;;;;4992766;28;20030;-72
2021/10/05 11:05:22;;;;;;;3.78;2.15;;;15.30;98.30;;;;;;4992643;28;20130;-72
2021/10/05 11:07:58;;;;;;;3.45;1.38;;;15.40;98.40;;;;;;4993198;28;20480;-69
2021/10/05 11:10:32;;;;;;;4.25;1.65;;;15.50;98.40;;;;;;4991399;28;20104;-71
2021/10/05 11:13:06;;;;;;;5.22;2.00;;;15.50;98.10;;;;;;4992934;28;20030;-69
2021/10/05 11:15:48;;;;;;;5.13;1.67;;;15.50;98.00;;;;;;4992200;28;20072;-69
2021/10/05 11:18:18;;;;;;;5.15;1.65;;;15.70;98.10;;;;;;4991230;28;20066;-71
2021/10/05 11:20:54;;;;;;;3.40;2.00;;;15.90;97.60;;;;;;4992239;28;20052;-70
2021/10/05 11:23:21;;;;;;;4.28;2.05;;;16.10;97.50;;;;;;4992137;28;20058;-70
2021/10/05 11:25:50;;;;;;;2.63;1.88;;;16.20;97.50;;;;;;4990206;28;20432;-71
2021/10/05 11:28:19;;;;;;;3.17;1.83;;;16.30;97.20;;;;;;4991195;28;20359;-71
2021/10/05 11:30:51;;;;;;;3.55;2.17;;;16.20;97.20;;;;;;4991412;28;20018;-72
2021/10/05 11:33:23;;;;;;;6.35;3.83;;;16.30;96.60;;;;;;4992080;28;20365;-72
2021/10/05 11:35:49;;;;;;;3.65;2.00;;;16.10;96.60;;;;;;4992150;28;20140;-71
2021/10/05 11:38:14;;;;;;;8.25;3.38;;;15.90;96.70;;;;;;4991950;28;20377;-71
2021/10/05 11:40:54;;;;;;;6.72;2.00;;;15.80;97.00;;;;;;4991754;28;20045;-71
2021/10/05 11:43:31;;;;;;;2.55;1.23;;;15.80;97.20;;;;;;4991630;28;20030;-71
2021/10/05 11:45:56;;;;;;;6.82;2.22;;;15.80;97.50;;;;;;4990946;28;20034;-71
2021/10/05 11:48:22;;;;;;;1.63;1.38;;;15.90;97.40;;;;;;4991674;28;20035;-73
2021/10/05 11:50:47;;;;;;;3.05;1.70;;;15.90;97.30;;;;;;4990881;28;20491;-75
2021/10/05 11:53:13;;;;;;;3.35;1.45;;;15.90;97.00;;;;;;4991567;28;20038;-74
2021/10/05 11:55:38;;;;;;;2.85;1.45;;;15.90;97.20;;;;;;4991438;28;20038;-74
2021/10/05 11:58:04;;;;;;;4.35;1.85;;;15.90;97.20;;;;;;4991957;28;20037;-75
2021/10/05 12:00:30;;;;;;;2.78;1.25;;;15.90;97.30;;;;;;4991390;28;20030;-74
2021/10/05 12:02:56;;;;;;;5.22;1.77;;;15.90;97.20;;;;;;4990106;28;20026;-74
2021/10/05 12:05:24;;;;;;;3.72;1.50;;;16.00;97.30;;;;;;4991795;28;20048;-74
2021/10/05 12:07:50;;;;;;;2.10;1.40;;;16.00;97.30;;;;;;4990205;28;20035;-75
2021/10/05 12:10:17;;;;;;;1.88;1.10;;;16.00;97.20;;;;;;4991205;28;20057;-74
2021/10/05 12:12:43;;;;;;;3.90;1.35;;;16.00;97.30;;;;;;4991901;28;20027;-75
2021/10/05 12:15:15;;;;;;;3.17;1.67;;;15.90;97.10;;;;;;4991280;28;20510;-73
2021/10/05 12:17:41;;;;;;;4.57;1.40;;;15.90;97.00;;;;;;4991507;28;20368;-75
2021/10/05 12:20:12;;;;;;;4.25;2.70;;;15.90;97.10;;;;;;4991347;28;20038;-74
2021/10/05 12:22:42;;;;;;;3.35;2.03;;;15.90;97.10;;;;;;4991343;28;20034;-74
2021/10/05 12:25:37;;;;;;;3.40;1.70;;;15.90;97.20;;;;;;4991376;28;20037;-74
2021/10/05 12:28:06;;;;;;;2.28;1.00;;;15.90;97.20;;;;;;4990030;28;20045;-74
2021/10/05 12:30:32;;;;;;;2.80;1.48;;;16.00;96.90;;;;;;4991296;28;20031;-74
2021/10/05 12:33:00;;;;;;;1.88;1.20;;;16.00;96.50;;;;;;4991418;28;20046;-74
2021/10/05 12:35:28;;;;;;;1.20;1.05;;;16.00;96.70;;;;;;4990248;28;20105;-74
2021/10/05 12:38:03;;;;;;;4.85;1.70;;;15.90;97.10;;;;;;4995330;28;20034;-76
2021/10/05 12:40:50;;;;;;;3.08;1.35;;;15.90;97.40;;;;;;4994679;28;20387;-74
2021/10/05 12:43:19;;;;;;;3.22;1.60;;;15.90;97.30;;;;;;4995088;28;20049;-73
2021/10/05 12:45:58;;;;;;;3.30;1.67;;;15.90;97.40;;;;;;4995285;28;20109;-74
2021/10/05 12:48:40;;;;;;;11.43;6.47;;;15.90;97.40;;;;;;4993557;28;20038;-74